Time;durP1;ratioP1;P1;durP2;ratioP2;P2;SDS_P1;SDS_P2;PMS_P1;PMS_P2;Temp;Humidity;BMP_temperature;BMP_pressure;BME280_temperature;BME280_humidity;BME280_pressure;Samples;Min_cycle;Max_cycle;Signal;HPM_P1;HPM_P2
2022/02/27 00:00:57;;;;;;;28.90;16.17;;;0.30;99.90;;;;;;5012196;28;20187;-66
2022/02/27 00:03:22;;;;;;;21.90;15.40;;;0.40;99.90;;;;;;5011481;28;20267;-67
2022/02/27 00:05:48;;;;;;;23.37;14.80;;;0.40;99.90;;;;;;5013114;28;20227;-66
2022/02/27 00:08:13;;;;;;;18.93;15.33;;;0.40;99.90;;;;;;5011846;28;20210;-66
2022/02/27 00:10:39;;;;;;;18.43;13.97;;;0.40;99.90;;;;;;5013067;28;20267;-67
2022/02/27 00:13:05;;;;;;;22.60;14.50;;;0.40;99.90;;;;;;5011442;28;20180;-67
2022/02/27 00:15:30;;;;;;;20.30;15.47;;;0.30;99.90;;;;;;5012853;28;20591;-66
2022/02/27 00:17:56;;;;;;;24.33;15.17;;;0.30;99.90;;;;;;5012741;28;20208;-66
2022/02/27 00:20:21;;;;;;;22.07;14.87;;;0.20;99.90;;;;;;5011348;28;20183;-66
2022/02/27 00:22:47;;;;;;;24.80;15.37;;;0.10;99.90;;;;;;5012670;28;20634;-66
2022/02/27 00:25:12;;;;;;;25.07;14.77;;;0.10;99.90;;;;;;5012631;28;20188;-66
2022/02/27 00:27:38;;;;;;;18.83;14.40;;;0.10;99.90;;;;;;5010633;28;20200;-66
2022/02/27 00:30:07;;;;;;;19.20;14.57;;;0.10;99.90;;;;;;5012500;28;20175;-66
2022/02/27 00:32:32;;;;;;;24.40;14.33;;;0.00;99.90;;;;;;5012540;28;20180;-66
2022/02/27 00:34:58;;;;;;;23.33;14.37;;;0.00;99.90;;;;;;5012976;28;20517;-66
2022/02/27 00:37:24;;;;;;;17.37;14.23;;;0.00;99.90;;;;;;5012061;28;20192;-66
2022/02/27 00:39:49;;;;;;;18.77;15.00;;;0.00;99.90;;;;;;5012570;28;20204;-66
2022/02/27 00:42:15;;;;;;;20.00;14.03;;;-0.10;99.90;;;;;;5010892;28;20215;-66
2022/02/27 00:44:41;;;;;;;15.97;14.20;;;0.00;99.90;;;;;;5011335;28;20231;-66
2022/02/27 00:47:07;;;;;;;25.27;14.73;;;-0.10;99.90;;;;;;5010999;28;20180;-66
2022/02/27 00:49:33;;;;;;;21.30;15.37;;;-0.10;99.90;;;;;;5012539;28;20173;-66
2022/02/27 00:51:59;;;;;;;18.23;15.03;;;-0.10;99.90;;;;;;5011957;28;20547;-66
2022/02/27 00:54:24;;;;;;;22.90;14.87;;;-0.10;99.90;;;;;;5012176;28;20191;-66
2022/02/27 00:56:50;;;;;;;28.43;15.37;;;-0.20;99.90;;;;;;5012203;28;20286;-66
2022/02/27 00:59:16;;;;;;;15.43;13.93;;;-0.30;99.90;;;;;;5010797;28;20215;-66
2022/02/27 01:01:41;;;;;;;22.80;15.10;;;-0.30;99.90;;;;;;5012100;28;20195;-66
2022/02/27 01:04:07;;;;;;;22.57;17.33;;;-0.40;99.90;;;;;;5010609;28;20176;-66
2022/02/27 01:06:32;;;;;;;21.47;16.13;;;-0.40;99.90;;;;;;5012060;28;20653;-66
2022/02/27 01:08:59;;;;;;;22.03;16.37;;;-0.40;99.90;;;;;;5010691;28;20271;-66
2022/02/27 01:11:26;;;;;;;25.87;19.60;;;-0.40;99.90;;;;;;5011999;28;20180;-66
2022/02/27 01:13:53;;;;;;;23.87;17.00;;;-0.50;99.90;;;;;;5011224;28;20195;-66
2022/02/27 01:16:18;;;;;;;26.67;17.00;;;-0.40;99.90;;;;;;5010461;28;20259;-66
2022/02/27 01:18:44;;;;;;;23.90;15.30;;;-0.40;99.90;;;;;;5009450;28;20655;-66
2022/02/27 01:21:09;;;;;;;24.43;16.10;;;-0.40;99.90;;;;;;5011953;28;20180;-66
2022/02/27 01:23:35;;;;;;;24.10;15.73;;;-0.50;99.90;;;;;;5011504;28;20545;-66
2022/02/27 01:26:01;;;;;;;25.40;16.13;;;-0.50;99.90;;;;;;5009429;28;20176;-66
2022/02/27 01:28:26;;;;;;;19.67;15.47;;;-0.50;99.90;;;;;;5011740;28;20204;-66
2022/02/27 01:30:52;;;;;;;20.17;14.43;;;-0.60;99.90;;;;;;5010481;28;20371;-67
2022/02/27 01:33:18;;;;;;;20.83;15.07;;;-0.60;99.90;;;;;;5010251;28;20559;-66
2022/02/27 01:35:43;;;;;;;24.23;14.67;;;-0.60;99.90;;;;;;5011114;28;20676;-67
2022/02/27 01:38:09;;;;;;;21.50;14.90;;;-0.60;99.90;;;;;;5010892;28;20214;-67
2022/02/27 01:40:34;;;;;;;16.40;14.33;;;-0.60;99.90;;;;;;5011741;28;20172;-66
2022/02/27 01:43:01;;;;;;;21.67;15.33;;;-0.60;99.90;;;;;;5010945;28;20180;-67
2022/02/27 01:45:27;;;;;;;20.97;15.77;;;-0.60;99.90;;;;;;5011265;28;20172;-67
2022/02/27 01:47:52;;;;;;;17.30;14.47;;;-0.60;99.90;;;;;;5011110;28;20760;-67
2022/02/27 01:50:18;;;;;;;16.90;14.97;;;-0.60;99.90;;;;;;5009441;28;20198;-67
2022/02/27 01:52:43;;;;;;;23.80;15.67;;;-0.50;99.90;;;;;;5011455;28;20226;-67
2022/02/27 01:55:10;;;;;;;18.87;14.13;;;-0.50;99.90;;;;;;5011704;28;20172;-66
2022/02/27 01:57:36;;;;;;;15.33;13.63;;;-0.50;99.90;;;;;;5011475;28;20616;-67
2022/02/27 02:00:06;;;;;;;15.97;13.97;;;-0.50;99.90;;;;;;5009995;28;20176;-66
2022/02/27 02:02:32;;;;;;;27.47;15.13;;;-0.50;99.90;;;;;;5005467;28;20165;-66
2022/02/27 02:04:57;;;;;;;22.53;13.77;;;-0.60;99.90;;;;;;5015332;28;20229;-67
2022/02/27 02:07:23;;;;;;;18.60;14.63;;;-0.50;99.90;;;;;;5011249;28;20176;-66
2022/02/27 02:09:49;;;;;;;20.63;13.73;;;-0.60;99.90;;;;;;5011000;28;20168;-66
2022/02/27 02:12:15;;;;;;;20.47;14.07;;;-0.50;99.90;;;;;;5010807;28;20314;-67
2022/02/27 02:14:40;;;;;;;19.40;13.93;;;-0.50;99.90;;;;;;5010115;28;20267;-66
2022/02/27 02:17:06;;;;;;;24.13;14.27;;;-0.50;99.90;;;;;;5009389;28;20203;-66
2022/02/27 02:19:32;;;;;;;15.50;13.93;;;-0.40;99.90;;;;;;5011416;28;20203;-67
2022/02/27 02:22:00;;;;;;;26.27;15.17;;;-0.30;99.90;;;;;;5010911;28;20203;-66
2022/02/27 02:24:26;;;;;;;19.00;14.17;;;-0.30;99.90;;;;;;5009991;28;20704;-67
2022/02/27 02:26:52;;;;;;;17.90;13.97;;;-0.30;99.90;;;;;;5009675;28;20563;-67
2022/02/27 02:29:21;;;;;;;18.13;13.70;;;-0.30;99.90;;;;;;5011251;28;20206;-67
2022/02/27 02:31:48;;;;;;;19.40;13.83;;;-0.30;99.90;;;;;;5008144;28;20184;-66
2022/02/27 02:34:17;;;;;;;16.47;13.87;;;-0.40;99.90;;;;;;5010632;28;20222;-67
2022/02/27 02:36:44;;;;;;;24.83;13.90;;;-0.40;99.90;;;;;;5010890;28;20180;-66
2022/02/27 02:39:13;;;;;;;27.57;13.50;;;-0.50;99.90;;;;;;5010317;28;20564;-66
2022/02/27 02:41:38;;;;;;;23.20;13.87;;;-0.40;99.90;;;;;;5009931;28;20700;-66
2022/02/27 02:44:05;;;;;;;15.13;13.17;;;-0.50;99.90;;;;;;5008877;28;20172;-66
2022/02/27 02:46:31;;;;;;;17.83;12.93;;;-0.50;99.90;;;;;;5010600;28;20184;-66
2022/02/27 02:48:57;;;;;;;25.50;12.93;;;-0.50;99.90;;;;;;5011246;28;20224;-66
2022/02/27 02:51:23;;;;;;;16.60;13.83;;;-0.50;99.90;;;;;;5007190;28;20212;-66
2022/02/27 02:53:50;;;;;;;18.30;13.80;;;-0.50;99.90;;;;;;5024499;28;20176;-66
2022/02/27 02:56:16;;;;;;;22.77;14.93;;;-0.50;99.90;;;;;;5023828;28;20581;-66
2022/02/27 02:58:42;;;;;;;24.47;13.97;;;-0.60;99.90;;;;;;5014380;28;20211;-66
2022/02/27 03:01:10;;;;;;;21.70;13.53;;;-0.60;99.90;;;;;;5013788;28;20198;-66
2022/02/27 03:03:38;;;;;;;25.87;15.10;;;-0.70;99.90;;;;;;5014368;28;20180;-66
2022/02/27 03:06:04;;;;;;;18.83;13.47;;;-0.70;99.90;;;;;;5013773;28;20223;-66
2022/02/27 03:08:30;;;;;;;18.90;13.63;;;-0.80;99.90;;;;;;5014001;28;20614;-66
2022/02/27 03:10:56;;;;;;;15.30;12.10;;;-0.80;99.90;;;;;;5011462;28;20180;-66
2022/02/27 03:13:22;;;;;;;23.00;14.50;;;-0.80;99.90;;;;;;5012407;28;20186;-66
2022/02/27 03:15:48;;;;;;;23.93;12.93;;;-0.80;99.90;;;;;;5012354;28;20180;-66
2022/02/27 03:18:16;;;;;;;15.17;13.07;;;-0.80;99.90;;;;;;5012450;28;20196;-68
2022/02/27 03:20:42;;;;;;;19.73;13.60;;;-0.90;99.90;;;;;;5011370;28;20173;-65
2022/02/27 03:23:08;;;;;;;15.33;12.33;;;-0.80;99.90;;;;;;5013060;28;20662;-67
2022/02/27 03:25:33;;;;;;;25.60;14.27;;;-0.80;99.90;;;;;;5013401;28;20179;-67
2022/02/27 03:27:59;;;;;;;17.30;13.17;;;-0.80;99.90;;;;;;5012271;28;20196;-67
2022/02/27 03:30:25;;;;;;;20.20;13.33;;;-0.80;99.90;;;;;;5012089;28;20192;-66
2022/02/27 03:32:50;;;;;;;17.63;12.10;;;-0.80;99.90;;;;;;5012202;28;20645;-66
2022/02/27 03:35:18;;;;;;;16.80;11.83;;;-0.70;99.90;;;;;;5012896;28;20184;-66
2022/02/27 03:37:49;;;;;;;16.13;13.90;;;-0.70;99.90;;;;;;5013652;28;20310;-67
2022/02/27 03:40:15;;;;;;;14.57;12.23;;;-0.70;99.90;;;;;;5012939;28;20259;-66
2022/02/27 03:42:40;;;;;;;23.47;13.93;;;-0.70;99.90;;;;;;5012217;28;20652;-67
2022/02/27 03:45:06;;;;;;;17.33;13.73;;;-0.70;99.90;;;;;;5012810;28;20180;-67
2022/02/27 03:47:32;;;;;;;17.37;13.23;;;-0.70;99.90;;;;;;5013277;28;20235;-67
2022/02/27 03:49:58;;;;;;;17.73;14.10;;;-0.70;99.90;;;;;;5011447;28;20180;-67
2022/02/27 03:52:23;;;;;;;18.90;13.40;;;-0.70;99.90;;;;;;5011902;28;20200;-67
2022/02/27 03:54:49;;;;;;;14.23;12.73;;;-0.70;99.90;;;;;;5011289;28;20172;-67
2022/02/27 03:57:15;;;;;;;22.67;12.67;;;-0.70;99.90;;;;;;5011869;28;20219;-65
2022/02/27 03:59:40;;;;;;;13.67;12.30;;;-0.80;99.90;;;;;;5012418;28;20234;-67
2022/02/27 04:02:06;;;;;;;21.00;12.90;;;-0.80;99.90;;;;;;5011486;28;20183;-67
2022/02/27 04:04:32;;;;;;;16.37;13.13;;;-0.80;99.90;;;;;;5011637;28;20182;-67
2022/02/27 04:06:57;;;;;;;19.53;12.33;;;-0.80;99.90;;;;;;5012713;28;20184;-67
2022/02/27 04:09:23;;;;;;;19.97;13.83;;;-0.90;99.90;;;;;;5012582;28;20279;-67
2022/02/27 04:11:48;;;;;;;18.73;13.77;;;-0.90;99.90;;;;;;5012959;28;20638;-67
2022/02/27 04:14:14;;;;;;;23.67;12.73;;;-0.90;99.90;;;;;;5012166;28;20661;-67
2022/02/27 04:16:39;;;;;;;23.30;12.67;;;-0.90;99.90;;;;;;5011545;28;20176;-67
2022/02/27 04:19:06;;;;;;;14.03;12.10;;;-0.90;99.90;;;;;;5012592;28;20235;-67
2022/02/27 04:21:32;;;;;;;18.93;12.90;;;-1.00;99.90;;;;;;5012766;28;20176;-67
2022/02/27 04:23:57;;;;;;;16.20;12.60;;;-1.00;99.90;;;;;;5012812;28;20183;-67
2022/02/27 04:26:23;;;;;;;13.83;12.43;;;-1.00;99.90;;;;;;5010387;28;20180;-67
2022/02/27 04:28:49;;;;;;;14.00;12.20;;;-1.00;99.90;;;;;;5012563;28;20200;-67
2022/02/27 04:31:14;;;;;;;16.77;13.30;;;-1.10;99.90;;;;;;5012138;28;20233;-67
2022/02/27 04:33:40;;;;;;;16.67;12.23;;;-1.10;99.90;;;;;;5010887;28;20207;-67
2022/02/27 04:36:05;;;;;;;22.53;13.40;;;-1.10;99.90;;;;;;5012431;28;20676;-67
2022/02/27 04:38:31;;;;;;;14.23;11.77;;;-1.00;99.90;;;;;;5012017;28;20242;-66
2022/02/27 04:40:57;;;;;;;20.53;12.70;;;-1.00;99.90;;;;;;5012161;28;20640;-67
2022/02/27 04:43:22;;;;;;;18.30;13.00;;;-1.00;99.90;;;;;;5012032;28;20649;-67
2022/02/27 04:45:48;;;;;;;15.60;12.20;;;-1.00;99.90;;;;;;5012285;28;20219;-67
2022/02/27 04:48:14;;;;;;;19.63;12.37;;;-1.10;99.90;;;;;;5011849;28;20273;-67
2022/02/27 04:50:40;;;;;;;23.50;12.23;;;-1.10;99.90;;;;;;5012122;28;20184;-66
2022/02/27 04:53:05;;;;;;;15.90;12.40;;;-1.10;99.90;;;;;;5011901;28;20250;-66
2022/02/27 04:55:31;;;;;;;19.50;12.77;;;-1.20;99.90;;;;;;5011879;28;20214;-66
2022/02/27 04:57:57;;;;;;;16.07;13.20;;;-1.10;99.90;;;;;;5010935;28;20196;-67
2022/02/27 05:00:23;;;;;;;19.37;12.27;;;-1.10;99.90;;;;;;5010579;28;20176;-66
2022/02/27 05:02:48;;;;;;;17.17;12.77;;;-1.10;99.90;;;;;;5010537;28;20195;-66
2022/02/27 05:05:14;;;;;;;18.93;12.53;;;-1.10;99.90;;;;;;5010344;28;20230;-67
2022/02/27 05:07:39;;;;;;;30.70;11.30;;;-1.20;99.90;;;;;;5010497;28;20370;-67
2022/02/27 05:10:08;;;;;;;18.53;11.93;;;-1.20;99.90;;;;;;5012432;28;20184;-66
2022/02/27 05:12:41;;;;;;;18.87;12.00;;;-1.20;99.90;;;;;;5009010;28;20180;-67
2022/02/27 05:15:08;;;;;;;12.67;11.03;;;-1.20;99.90;;;;;;5010469;28;20176;-66
2022/02/27 05:17:37;;;;;;;16.27;11.60;;;-1.30;99.90;;;;;;5011162;28;20563;-67
2022/02/27 05:20:04;;;;;;;13.77;11.40;;;-1.30;99.90;;;;;;5010350;28;20183;-68
2022/02/27 05:22:29;;;;;;;15.33;11.20;;;-1.30;99.90;;;;;;5008115;28;20184;-66
2022/02/27 05:24:55;;;;;;;13.03;11.30;;;-1.40;99.90;;;;;;5010312;28;20527;-66
2022/02/27 05:27:21;;;;;;;16.53;11.77;;;-1.50;99.90;;;;;;5011829;28;20217;-67
2022/02/27 05:29:46;;;;;;;12.87;11.37;;;-1.50;99.90;;;;;;5011329;28;20208;-66
2022/02/27 05:32:12;;;;;;;17.67;11.90;;;-1.50;99.90;;;;;;5009730;28;20176;-66
2022/02/27 05:34:38;;;;;;;13.93;11.67;;;-1.60;99.90;;;;;;5010199;28;20254;-66
2022/02/27 05:37:03;;;;;;;21.67;11.57;;;-1.60;99.90;;;;;;5011670;28;20215;-67
2022/02/27 05:39:29;;;;;;;19.63;11.93;;;-1.70;99.90;;;;;;5011214;28;20282;-66
2022/02/27 05:41:54;;;;;;;18.00;11.87;;;-1.70;99.90;;;;;;5010540;28;20187;-67
2022/02/27 05:44:20;;;;;;;17.73;12.27;;;-1.70;99.90;;;;;;5009548;28;20626;-67
2022/02/27 05:46:46;;;;;;;14.63;12.03;;;-1.70;99.90;;;;;;5010112;28;20172;-67
2022/02/27 05:49:11;;;;;;;15.20;11.77;;;-1.80;99.90;;;;;;5011307;28;20739;-66
2022/02/27 05:51:37;;;;;;;12.80;11.60;;;-1.80;99.90;;;;;;5010401;28;20191;-66
2022/02/27 05:54:02;;;;;;;14.90;12.17;;;-1.80;99.90;;;;;;5010691;28;20227;-67
2022/02/27 05:56:28;;;;;;;14.63;11.93;;;-1.80;99.90;;;;;;5009400;28;20279;-67
2022/02/27 05:58:55;;;;;;;18.37;12.97;;;-1.90;99.90;;;;;;5010871;28;20214;-67
2022/02/27 06:01:20;;;;;;;12.77;11.50;;;-1.90;99.90;;;;;;5010664;28;20650;-68
2022/02/27 06:03:46;;;;;;;19.63;12.10;;;-1.90;99.90;;;;;;5010182;28;20266;-67
2022/02/27 06:06:11;;;;;;;14.07;11.73;;;-1.90;99.90;;;;;;5011545;28;20212;-66
2022/02/27 06:08:37;;;;;;;14.40;11.80;;;-1.90;99.90;;;;;;5009469;28;20203;-66
2022/02/27 06:11:03;;;;;;;15.90;11.67;;;-1.90;99.90;;;;;;5010311;28;20184;-67
2022/02/27 06:13:28;;;;;;;11.93;10.83;;;-2.00;99.90;;;;;;5008074;28;20198;-66
2022/02/27 06:15:54;;;;;;;15.23;12.83;;;-2.00;99.90;;;;;;5013353;28;20191;-67
2022/02/27 06:18:20;;;;;;;14.80;12.93;;;-2.00;99.90;;;;;;5013676;28;20216;-66
2022/02/27 06:20:46;;;;;;;19.77;11.50;;;-2.00;99.90;;;;;;5022576;28;20183;-66
2022/02/27 06:23:12;;;;;;;20.80;12.30;;;-2.00;99.90;;;;;;5013542;28;20188;-66
2022/02/27 06:25:38;;;;;;;15.80;12.67;;;-2.10;99.90;;;;;;5012710;28;20538;-66
2022/02/27 06:28:04;;;;;;;14.17;12.77;;;-2.10;99.90;;;;;;5013619;28;20578;-66
2022/02/27 06:30:30;;;;;;;15.37;11.83;;;-2.10;99.90;;;;;;5016440;28;20190;-66
2022/02/27 06:32:56;;;;;;;15.93;12.03;;;-2.10;99.90;;;;;;5014876;28;20176;-66
2022/02/27 06:35:24;;;;;;;16.53;13.00;;;-2.10;99.90;;;;;;5014671;28;20676;-66
2022/02/27 06:37:52;;;;;;;17.63;12.37;;;-2.10;99.90;;;;;;5013512;28;20314;-67
2022/02/27 06:40:18;;;;;;;15.37;12.97;;;-2.00;99.90;;;;;;5014529;28;20594;-66
2022/02/27 06:42:44;;;;;;;128.77;40.50;;;-2.00;99.90;;;;;;5012620;28;20211;-67
2022/02/27 06:45:12;;;;;;;155.73;42.13;;;-2.00;99.90;;;;;;5013092;28;20567;-67
2022/02/27 06:47:38;;;;;;;172.17;46.60;;;-1.80;99.90;;;;;;5016236;28;20192;-67
2022/02/27 06:50:05;;;;;;;88.83;28.60;;;-1.70;99.90;;;;;;5014527;28;20318;-66
2022/02/27 06:52:32;;;;;;;73.33;24.87;;;-1.60;99.90;;;;;;5013006;28;20179;-67
2022/02/27 06:54:57;;;;;;;44.37;19.33;;;-1.60;99.90;;;;;;5012846;28;20212;-66
2022/02/27 06:57:23;;;;;;;32.30;16.23;;;-1.40;99.90;;;;;;5013033;28;20700;-67
2022/02/27 06:59:49;;;;;;;29.83;16.77;;;-1.30;99.90;;;;;;5014568;28;20306;-66
2022/02/27 07:02:15;;;;;;;34.67;15.40;;;-1.20;99.90;;;;;;5014228;28;20662;-67
2022/02/27 07:04:41;;;;;;;28.77;14.20;;;-1.20;99.90;;;;;;5012699;28;20539;-67
2022/02/27 07:07:06;;;;;;;20.40;13.10;;;-1.00;99.90;;;;;;5012152;28;20180;-67
2022/02/27 07:09:33;;;;;;;25.43;13.87;;;-0.90;99.90;;;;;;5011030;28;20802;-67
2022/02/27 07:11:59;;;;;;;23.27;14.40;;;-0.80;99.90;;;;;;5013115;28;20661;-67
2022/02/27 07:14:24;;;;;;;22.30;14.27;;;-0.80;99.90;;;;;;5013222;28;20291;-67
2022/02/27 07:16:50;;;;;;;17.50;14.60;;;-0.70;99.90;;;;;;5014082;28;20270;-67
2022/02/27 07:19:16;;;;;;;20.93;13.27;;;-0.60;99.90;;;;;;5013418;28;20326;-67
2022/02/27 07:21:42;;;;;;;22.57;12.47;;;-0.50;99.90;;;;;;5013557;28;20638;-67
2022/02/27 07:24:08;;;;;;;20.57;12.03;;;-0.30;99.90;;;;;;5013074;28;20195;-66
2022/02/27 07:26:34;;;;;;;18.03;12.43;;;-0.20;99.90;;;;;;5013225;28;20293;-67
2022/02/27 07:28:59;;;;;;;16.70;14.23;;;0.00;99.90;;;;;;5012546;28;20208;-67
2022/02/27 07:31:25;;;;;;;23.47;13.87;;;0.40;99.90;;;;;;5013721;28;20310;-67
2022/02/27 07:33:51;;;;;;;17.27;12.83;;;0.90;99.90;;;;;;5013297;28;20188;-67
2022/02/27 07:36:17;;;;;;;15.70;12.77;;;1.40;99.90;;;;;;5012098;28;20176;-67
2022/02/27 07:38:43;;;;;;;15.07;12.67;;;1.80;99.90;;;;;;5012741;28;20216;-66
2022/02/27 07:41:08;;;;;;;16.93;12.93;;;2.20;99.90;;;;;;5013556;28;20264;-67
2022/02/27 07:43:34;;;;;;;14.90;12.97;;;2.50;99.90;;;;;;5010787;28;20196;-67
2022/02/27 07:46:00;;;;;;;17.03;11.50;;;2.90;99.90;;;;;;5012387;28;20176;-68
2022/02/27 07:48:28;;;;;;;15.63;10.80;;;3.20;99.90;;;;;;5011278;28;20215;-67
2022/02/27 07:50:54;;;;;;;15.00;9.50;;;3.50;99.90;;;;;;5011997;28;20188;-67
2022/02/27 07:53:20;;;;;;;11.83;10.30;;;3.70;99.90;;;;;;5012124;28;20179;-67
2022/02/27 07:55:46;;;;;;;11.57;9.60;;;4.10;99.90;;;;;;5011647;28;20176;-67
2022/02/27 07:58:13;;;;;;;19.40;10.37;;;4.30;99.90;;;;;;5011698;28;20196;-67
2022/02/27 08:00:39;;;;;;;9.27;8.37;;;4.50;99.90;;;;;;5011748;28;20177;-67
2022/02/27 08:03:07;;;;;;;9.00;8.20;;;4.90;99.90;;;;;;5011485;28;20271;-67
2022/02/27 08:05:32;;;;;;;14.57;8.03;;;5.20;99.90;;;;;;5011760;28;20180;-67
2022/02/27 08:07:58;;;;;;;9.73;8.17;;;5.30;99.90;;;;;;5011474;28;20259;-66
2022/02/27 08:10:24;;;;;;;10.47;7.40;;;5.50;99.90;;;;;;5010714;28;20180;-66
2022/02/27 08:12:49;;;;;;;8.27;7.70;;;5.90;99.90;;;;;;5012591;28;20202;-67
2022/02/27 08:15:16;;;;;;;9.40;7.70;;;6.30;99.90;;;;;;5011775;28;20705;-67
2022/02/27 08:17:42;;;;;;;8.43;7.00;;;6.60;99.90;;;;;;5011300;28;20207;-67
2022/02/27 08:20:09;;;;;;;7.93;7.10;;;6.70;99.90;;;;;;5011552;28;20630;-67
2022/02/27 08:22:36;;;;;;;9.47;8.67;;;6.90;99.90;;;;;;5010684;28;20204;-67
2022/02/27 08:25:06;;;;;;;8.90;7.30;;;7.00;99.90;;;;;;5012843;28;20172;-67
2022/02/27 08:27:32;;;;;;;8.67;7.63;;;7.00;99.90;;;;;;5011424;28;20625;-66
2022/02/27 08:29:57;;;;;;;9.30;8.23;;;7.00;99.90;;;;;;5012586;28;20199;-67
2022/02/27 08:32:23;;;;;;;7.97;7.23;;;6.90;99.90;;;;;;5010730;28;20183;-67
2022/02/27 08:34:49;;;;;;;8.53;7.73;;;7.00;99.90;;;;;;5012852;28;20177;-67
2022/02/27 08:37:14;;;;;;;8.30;7.50;;;7.20;99.90;;;;;;5012037;28;20211;-67
2022/02/27 08:39:40;;;;;;;8.30;7.50;;;7.50;99.90;;;;;;5013285;28;20211;-67
2022/02/27 08:42:06;;;;;;;11.50;7.47;;;7.80;99.90;;;;;;5012286;28;20187;-67
2022/02/27 08:44:34;;;;;;;10.10;7.27;;;7.90;99.90;;;;;;5011954;28;20192;-67
2022/02/27 08:47:01;;;;;;;8.23;7.63;;;7.90;99.90;;;;;;5012614;28;20598;-67
2022/02/27 08:49:26;;;;;;;8.60;7.90;;;7.90;99.90;;;;;;5010153;28;20764;-67
2022/02/27 08:51:52;;;;;;;8.30;7.67;;;8.00;99.90;;;;;;5010977;28;20191;-67
2022/02/27 08:54:18;;;;;;;8.30;7.57;;;7.90;99.90;;;;;;5010274;28;20180;-67
2022/02/27 08:56:44;;;;;;;7.87;7.07;;;8.10;99.90;;;;;;5011261;28;20212;-67
2022/02/27 08:59:10;;;;;;;9.47;6.97;;;8.30;99.90;;;;;;5009759;28;20239;-67
2022/02/27 09:01:35;;;;;;;7.97;7.03;;;8.40;99.90;;;;;;5010235;28;20215;-67
2022/02/27 09:04:01;;;;;;;8.83;7.00;;;8.40;99.90;;;;;;5009183;28;20169;-67
2022/02/27 09:06:27;;;;;;;10.87;7.70;;;8.40;99.90;;;;;;4992253;28;20188;-67
2022/02/27 09:08:52;;;;;;;7.40;6.90;;;8.20;99.90;;;;;;5001197;28;20208;-67
2022/02/27 09:11:18;;;;;;;8.43;7.63;;;8.20;99.90;;;;;;5011740;28;20556;-67
2022/02/27 09:13:44;;;;;;;7.63;6.90;;;8.40;99.90;;;;;;5011172;28;20180;-67
2022/02/27 09:16:09;;;;;;;8.40;7.50;;;8.60;99.90;;;;;;5010755;28;20187;-67
2022/02/27 09:18:35;;;;;;;7.30;6.80;;;8.80;99.90;;;;;;5009725;28;20241;-67
2022/02/27 09:21:01;;;;;;;7.33;6.83;;;8.70;99.90;;;;;;5010831;28;20255;-66
2022/02/27 09:23:27;;;;;;;8.37;7.57;;;8.70;99.90;;;;;;5009857;28;20191;-67
2022/02/27 09:25:53;;;;;;;11.60;8.33;;;8.60;99.90;;;;;;5012206;28;20501;-67
2022/02/27 09:28:19;;;;;;;7.83;7.13;;;8.80;99.90;;;;;;5011812;28;20208;-66
2022/02/27 09:30:44;;;;;;;7.80;6.63;;;8.90;99.90;;;;;;5010347;28;20561;-66
2022/02/27 09:33:10;;;;;;;10.70;7.07;;;9.00;99.90;;;;;;5009939;28;20267;-66
2022/02/27 09:35:37;;;;;;;11.27;7.27;;;9.30;99.90;;;;;;5011435;28;20559;-67
2022/02/27 09:38:03;;;;;;;8.37;6.53;;;9.50;99.90;;;;;;5011406;28;20210;-66
2022/02/27 09:40:29;;;;;;;7.10;6.50;;;9.60;99.90;;;;;;5009837;28;20180;-66
2022/02/27 09:42:56;;;;;;;7.63;6.83;;;9.50;99.90;;;;;;5010122;28;20176;-66
2022/02/27 09:45:23;;;;;;;7.60;7.00;;;9.40;99.90;;;;;;5011190;28;20195;-66
2022/02/27 09:47:50;;;;;;;6.80;6.30;;;9.30;99.90;;;;;;5011617;28;20196;-66
2022/02/27 09:50:17;;;;;;;8.27;6.90;;;9.40;99.90;;;;;;5010093;28;20214;-66
2022/02/27 09:52:43;;;;;;;9.67;7.13;;;9.50;99.90;;;;;;5011114;28;20199;-67
2022/02/27 09:55:12;;;;;;;7.70;7.00;;;9.60;99.90;;;;;;5011221;28;20587;-66
2022/02/27 09:57:38;;;;;;;7.50;6.80;;;9.70;99.90;;;;;;5009846;28;20283;-66
2022/02/27 10:00:08;;;;;;;8.30;6.40;;;10.00;99.90;;;;;;5012118;28;20187;-66
2022/02/27 10:02:34;;;;;;;7.30;6.70;;;10.00;99.90;;;;;;5013453;28;20206;-66
2022/02/27 10:05:02;;;;;;;7.53;6.67;;;10.00;99.90;;;;;;5013713;28;20187;-66
2022/02/27 10:07:27;;;;;;;6.90;6.27;;;10.20;99.90;;;;;;5013663;28;20211;-66
2022/02/27 10:10:05;;;;;;;9.43;6.33;;;10.40;99.90;;;;;;5015367;28;20176;-66
2022/02/27 10:12:30;;;;;;;6.90;6.30;;;10.50;99.90;;;;;;5014760;28;20180;-66
2022/02/27 10:15:02;;;;;;;7.37;6.43;;;10.60;99.90;;;;;;5015444;28;20172;-67
2022/02/27 10:17:33;;;;;;;8.53;6.87;;;10.60;99.90;;;;;;5014723;28;20196;-66
2022/02/27 10:19:59;;;;;;;7.27;6.30;;;10.70;99.90;;;;;;5014429;28;20511;-66
2022/02/27 10:22:30;;;;;;;7.50;6.80;;;10.60;99.90;;;;;;5014674;28;20235;-66
2022/02/27 10:24:56;;;;;;;8.00;6.37;;;10.60;99.90;;;;;;5013777;28;20184;-66
2022/02/27 10:27:22;;;;;;;7.20;6.60;;;10.70;99.90;;;;;;5014972;28;20179;-66
2022/02/27 10:29:48;;;;;;;6.90;6.30;;;10.80;99.90;;;;;;5014405;28;20557;-66
2022/02/27 10:32:13;;;;;;;7.43;6.17;;;11.00;99.90;;;;;;5014566;28;20211;-66
2022/02/27 10:34:39;;;;;;;7.33;6.60;;;11.00;99.90;;;;;;5014482;28;20184;-66
2022/02/27 10:37:09;;;;;;;6.93;6.27;;;10.90;99.90;;;;;;5011144;28;20188;-66
2022/02/27 10:39:38;;;;;;;7.43;6.30;;;10.80;99.90;;;;;;4996839;28;20298;-66
2022/02/27 10:42:08;;;;;;;6.60;6.00;;;10.90;99.90;;;;;;5013343;28;20267;-67
2022/02/27 10:44:34;;;;;;;6.47;5.97;;;10.90;99.90;;;;;;5013160;28;20180;-66
2022/02/27 10:47:09;;;;;;;6.47;5.80;;;10.70;99.90;;;;;;5014599;28;20176;-66
2022/02/27 10:49:34;;;;;;;6.50;5.90;;;10.60;99.90;;;;;;5014166;28;20179;-66
2022/02/27 10:52:13;;;;;;;6.07;5.57;;;10.70;99.90;;;;;;5014240;28;20180;-67
2022/02/27 10:54:40;;;;;;;8.33;6.00;;;10.80;99.90;;;;;;5014236;28;20470;-67
2022/02/27 10:57:10;;;;;;;6.20;5.70;;;10.80;99.90;;;;;;5014591;28;20198;-67
2022/02/27 10:59:39;;;;;;;6.97;6.27;;;10.90;99.90;;;;;;5014414;28;20208;-68
2022/02/27 11:02:08;;;;;;;6.77;6.07;;;11.00;99.90;;;;;;5014335;28;20693;-67
2022/02/27 11:04:35;;;;;;;6.40;5.80;;;11.20;99.90;;;;;;5013875;28;20780;-67
2022/02/27 11:07:02;;;;;;;6.73;6.13;;;11.40;99.90;;;;;;4994503;28;20236;-68
2022/02/27 11:09:28;;;;;;;9.40;6.20;;;11.60;99.90;;;;;;4996508;28;20645;-66
2022/02/27 11:11:55;;;;;;;6.07;5.67;;;11.60;99.90;;;;;;5013094;28;20222;-66
2022/02/27 11:14:21;;;;;;;6.60;6.03;;;11.70;99.90;;;;;;5013591;28;20208;-67
2022/02/27 11:16:48;;;;;;;6.73;6.13;;;11.70;99.90;;;;;;5014195;28;20176;-67
2022/02/27 11:19:14;;;;;;;6.60;6.00;;;11.60;99.90;;;;;;5012812;28;20600;-68
2022/02/27 11:21:42;;;;;;;6.30;5.80;;;11.60;99.90;;;;;;5014324;28;20246;-67
2022/02/27 11:24:09;;;;;;;6.70;6.13;;;11.60;99.90;;;;;;5013481;28;20176;-67
2022/02/27 11:26:35;;;;;;;7.33;5.67;;;11.60;99.90;;;;;;5013458;28;20202;-67
2022/02/27 11:29:01;;;;;;;6.70;6.20;;;11.60;99.90;;;;;;5013700;28;20235;-67
2022/02/27 11:31:27;;;;;;;6.73;5.80;;;11.60;99.90;;;;;;5014360;28;20793;-67
2022/02/27 11:34:20;;;;;;;7.17;6.10;;;11.70;99.90;;;;;;5012251;28;20188;-67
2022/02/27 11:36:51;;;;;;;6.50;6.00;;;11.90;99.90;;;;;;5014134;28;20211;-68
2022/02/27 11:42:02;;;;;;;6.23;5.83;;;11.70;99.90;;;;;;5013627;28;20208;-67
2022/02/27 11:44:32;;;;;;;6.37;5.77;;;11.80;99.90;;;;;;5013010;28;20188;-67
2022/02/27 11:47:04;;;;;;;6.43;5.83;;;11.90;99.90;;;;;;5012373;28;20180;-67
2022/02/27 11:49:29;;;;;;;10.80;6.57;;;11.90;99.90;;;;;;5013155;28;20265;-67
2022/02/27 11:52:12;;;;;;;6.90;6.30;;;11.70;99.90;;;;;;5012139;28;20645;-66
2022/02/27 11:54:52;;;;;;;9.30;8.03;;;11.70;99.90;;;;;;5011647;28;20188;-67
2022/02/27 11:57:26;;;;;;;6.40;5.80;;;12.00;99.90;;;;;;5013026;28;20196;-67
2022/02/27 11:59:59;;;;;;;6.80;6.07;;;12.20;99.90;;;;;;5013469;28;20211;-67
2022/02/27 12:02:34;;;;;;;6.73;6.13;;;12.40;99.90;;;;;;5012724;28;20278;-67
2022/02/27 12:05:01;;;;;;;6.40;6.00;;;12.60;99.90;;;;;;5012072;28;20226;-67
2022/02/27 12:07:28;;;;;;;6.60;5.83;;;12.60;99.90;;;;;;5012750;28;20223;-67
2022/02/27 12:10:00;;;;;;;7.23;6.43;;;12.60;99.90;;;;;;5011602;28;20191;-67
2022/02/27 12:12:38;;;;;;;7.30;6.80;;;12.60;99.90;;;;;;5011337;28;20187;-67
2022/02/27 12:15:30;;;;;;;6.83;6.17;;;12.70;99.90;;;;;;5013008;28;20594;-67
2022/02/27 12:18:02;;;;;;;6.63;6.03;;;12.80;99.90;;;;;;5011150;28;20210;-68
2022/02/27 12:20:37;;;;;;;8.00;6.40;;;12.80;99.90;;;;;;5011770;28;20477;-68
2022/02/27 12:23:08;;;;;;;8.80;7.20;;;12.80;99.90;;;;;;5010902;28;20175;-67
2022/02/27 12:25:43;;;;;;;6.90;6.30;;;12.90;99.90;;;;;;5013055;28;20184;-68
2022/02/27 12:28:09;;;;;;;7.27;6.60;;;13.00;99.90;;;;;;5012577;28;20226;-67
2022/02/27 12:30:35;;;;;;;7.13;6.50;;;12.90;99.90;;;;;;5011417;28;20685;-67
2022/02/27 12:33:10;;;;;;;6.33;5.73;;;13.00;99.90;;;;;;5012185;28;20184;-67
2022/02/27 12:35:38;;;;;;;6.60;6.10;;;12.90;99.90;;;;;;5011385;28;20568;-67